Time;durP1;ratioP1;P1;durP2;ratioP2;P2;SDS_P1;SDS_P2;PMS_P1;PMS_P2;Temp;Humidity;BMP_temperature;BMP_pressure;BME280_temperature;BME280_humidity;BME280_pressure;Samples;Min_cycle;Max_cycle;Signal;HPM_P1;HPM_P2
2022/01/22 00:02:08;;;;;;;26.08;3.88;;;;;;;;;;5113125;28;20131;-81
2022/01/22 00:04:34;;;;;;;27.02;4.22;;;;;;;;;;5112939;28;20127;-80
2022/01/22 00:07:02;;;;;;;28.23;3.92;;;;;;;;;;5113134;28;20039;-79
2022/01/22 00:09:35;;;;;;;24.95;3.38;;;;;;;;;;5111732;28;20568;-80
2022/01/22 00:12:02;;;;;;;28.55;3.47;;;;;;;;;;5112895;28;20088;-80
2022/01/22 00:14:29;;;;;;;34.25;3.75;;;;;;;;;;5112936;28;20039;-80
2022/01/22 00:16:57;;;;;;;32.53;3.42;;;;;;;;;;5112550;28;20119;-80
2022/01/22 00:19:24;;;;;;;25.40;3.08;;;;;;;;;;5112917;28;20043;-80
2022/01/22 00:21:51;;;;;;;33.90;3.53;;;;;;;;;;5111561;28;20141;-79
2022/01/22 00:24:18;;;;;;;32.65;3.60;;;;;;;;;;5112774;28;20046;-80
2022/01/22 00:26:44;;;;;;;24.30;2.95;;;;;;;;;;5113059;28;20035;-80
2022/01/22 00:29:11;;;;;;;25.67;3.17;;;;;;;;;;5112708;28;20039;-79
2022/01/22 00:31:39;;;;;;;21.02;2.50;;;;;;;;;;5112521;28;20079;-80
2022/01/22 00:34:24;;;;;;;18.58;2.20;;;;;;;;;;5112905;28;20043;-80
2022/01/22 00:36:50;;;;;;;22.17;2.80;;;;;;;;;;5112795;28;20046;-80
2022/01/22 00:39:16;;;;;;;18.88;2.45;;;;;;;;;;5112888;28;20074;-80
2022/01/22 00:41:43;;;;;;;16.45;2.60;;;;;;;;;;5112670;28;20439;-80
2022/01/22 00:44:09;;;;;;;16.23;2.50;;;;;;;;;;5112590;28;20039;-80
2022/01/22 00:46:35;;;;;;;16.20;2.35;;;;;;;;;;5112744;28;20130;-79
2022/01/22 00:49:02;;;;;;;15.40;2.03;;;;;;;;;;5114324;28;20085;-79
2022/01/22 00:51:29;;;;;;;19.30;2.22;;;;;;;;;;5116680;28;20050;-79
2022/01/22 00:53:55;;;;;;;13.18;2.22;;;;;;;;;;5115579;28;20049;-80
2022/01/22 00:56:21;;;;;;;18.00;2.17;;;;;;;;;;5115429;28;20376;-80
2022/01/22 00:58:47;;;;;;;15.35;2.17;;;;;;;;;;5116390;28;20512;-80
2022/01/22 01:01:13;;;;;;;11.77;1.60;;;;;;;;;;5098765;28;20132;-80
2022/01/22 01:03:39;;;;;;;15.52;2.47;;;;;;;;;;5115311;28;20097;-79
2022/01/22 01:06:06;;;;;;;10.48;1.65;;;;;;;;;;5116437;28;20168;-79
2022/01/22 01:08:34;;;;;;;13.02;1.80;;;;;;;;;;5114990;28;20059;-79
2022/01/22 01:11:00;;;;;;;10.15;1.70;;;;;;;;;;5116114;28;20395;-79
2022/01/22 01:13:29;;;;;;;9.82;1.90;;;;;;;;;;5114787;28;20061;-79
2022/01/22 01:32:17;;;;;;;12.57;2.33;;;;;;;;;;5115872;28;20058;-80
2022/01/22 01:34:45;;;;;;;15.52;2.20;;;;;;;;;;5116005;28;20050;-80
2022/01/22 01:37:16;;;;;;;14.55;2.28;;;;;;;;;;5114703;28;20036;-80
2022/01/22 01:39:43;;;;;;;;;;;;;;;;;;5116232;28;20066;-79
2022/01/22 01:42:15;;;;;;;14.98;2.20;;;;;;;;;;5115813;28;19916;-80
2022/01/22 01:44:41;;;;;;;14.20;2.05;;;;;;;;;;5114426;28;20051;-80
2022/01/22 01:47:09;;;;;;;12.32;2.20;;;;;;;;;;5115736;28;20476;-80
2022/01/22 01:49:35;;;;;;;10.57;2.22;;;;;;;;;;5115705;28;20039;-80
2022/01/22 01:52:04;;;;;;;14.35;2.15;;;;;;;;;;5115494;28;20039;-79
2022/01/22 01:54:47;;;;;;;14.10;2.42;;;;;;;;;;5115554;28;20148;-80
2022/01/22 01:57:32;;;;;;;12.38;1.90;;;;;;;;;;5114076;28;20054;-79
2022/01/22 02:00:00;;;;;;;13.45;2.20;;;;;;;;;;5114533;28;20124;-80
2022/01/22 02:02:29;;;;;;;12.85;1.92;;;;;;;;;;5114031;28;20416;-80
2022/01/22 02:04:55;;;;;;;12.15;2.03;;;;;;;;;;5115342;28;20047;-79
2022/01/22 02:07:21;;;;;;;11.68;1.83;;;;;;;;;;5115217;28;20040;-79
2022/01/22 02:09:47;;;;;;;16.45;2.15;;;;;;;;;;5132620;27;20103;-79
2022/01/22 02:23:47;;;;;;;13.77;2.13;;;;;;;;;;5135468;27;20058;-80
2022/01/22 02:26:14;;;;;;;11.73;2.22;;;;;;;;;;5135270;27;20039;-79
2022/01/22 02:28:41;;;;;;;13.77;1.90;;;;;;;;;;5135301;27;20357;-80
2022/01/22 02:34:23;;;;;;;10.77;2.00;;;;;;;;;;5071682;28;20422;-80
2022/01/22 02:37:03;;;;;;;10.60;1.85;;;;;;;;;;5071514;28;20049;-81
2022/01/22 02:39:40;;;;;;;15.35;1.88;;;;;;;;;;5112088;27;20139;-80
2022/01/22 02:42:06;;;;;;;10.98;1.85;;;;;;;;;;5135456;27;20194;-80
2022/01/22 02:44:43;;;;;;;18.63;1.92;;;;;;;;;;5135099;27;20043;-80
2022/01/22 02:47:10;;;;;;;15.68;2.05;;;;;;;;;;5134900;27;20051;-80
2022/01/22 02:49:36;;;;;;;11.02;1.95;;;;;;;;;;5134905;27;20047;-80
2022/01/22 02:52:05;;;;;;;9.63;1.80;;;;;;;;;;5116594;27;20122;-79
2022/01/22 02:54:31;;;;;;;11.45;1.63;;;;;;;;;;5134872;27;20039;-79
2022/01/22 02:56:57;;;;;;;8.55;1.63;;;;;;;;;;5134846;27;20126;-80
2022/01/22 02:59:23;;;;;;;8.43;1.20;;;;;;;;;;5099660;27;20051;-79
2022/01/22 03:01:50;;;;;;;11.15;1.63;;;;;;;;;;5135077;27;20043;-79
2022/01/22 03:04:17;;;;;;;10.98;1.50;;;;;;;;;;5134626;27;20069;-80
2022/01/22 03:06:43;;;;;;;8.15;1.30;;;;;;;;;;5134798;27;20156;-79
2022/01/22 03:09:12;;;;;;;10.10;1.45;;;;;;;;;;5134554;27;20137;-79
2022/01/22 03:11:58;;;;;;;9.93;1.40;;;;;;;;;;5134313;27;20457;-79
2022/01/22 03:17:21;;;;;;;7.00;1.48;;;;;;;;;;5134427;27;20047;-79
2022/01/22 03:22:20;;;;;;;11.35;1.60;;;;;;;;;;5134175;27;20484;-79
2022/01/22 03:27:32;;;;;;;9.05;1.50;;;;;;;;;;5115897;27;20061;-79
2022/01/22 03:29:59;;;;;;;8.90;1.60;;;;;;;;;;5116138;27;20043;-79
2022/01/22 03:32:29;;;;;;;8.73;1.67;;;;;;;;;;5134566;27;20050;-79
2022/01/22 03:35:44;;;;;;;9.25;1.77;;;;;;;;;;5115779;27;20118;-79
2022/01/22 03:37:49;;;;;;;10.48;1.65;;;;;;;;;;5125204;27;20069;-79
2022/01/22 03:40:15;;;;;;;10.98;1.80;;;;;;;;;;5134054;27;20164;-79
2022/01/22 03:42:41;;;;;;;11.05;1.48;;;;;;;;;;5115627;27;20042;-79
2022/01/22 03:45:09;;;;;;;10.00;1.83;;;;;;;;;;5115601;27;20391;-79
2022/01/22 03:47:35;;;;;;;12.02;1.98;;;;;;;;;;5134041;27;20039;-79
2022/01/22 03:50:01;;;;;;;7.22;1.80;;;;;;;;;;5115913;27;20122;-79
2022/01/22 03:52:28;;;;;;;14.02;1.98;;;;;;;;;;5133663;27;20054;-79
2022/01/22 03:54:54;;;;;;;7.53;1.90;;;;;;;;;;5133792;27;20365;-79
2022/01/22 03:57:22;;;;;;;12.52;1.90;;;;;;;;;;5133560;27;20054;-79
2022/01/22 03:59:49;;;;;;;12.68;1.88;;;;;;;;;;5133609;27;20384;-78
2022/01/22 04:02:56;;;;;;;8.15;1.77;;;;;;;;;;5133998;27;20043;-79
2022/01/22 04:05:10;;;;;;;12.15;1.85;;;;;;;;;;5115052;28;20400;-79
2022/01/22 04:10:10;;;;;;;13.00;1.60;;;;;;;;;;5133346;27;20053;-79
2022/01/22 04:12:50;;;;;;;11.27;1.88;;;;;;;;;;5133442;27;20039;-79
2022/01/22 04:15:19;;;;;;;10.27;1.85;;;;;;;;;;5133749;27;20118;-79
2022/01/22 04:25:52;;;;;;;8.43;1.25;;;;;;;;;;5140493;27;20047;-80
2022/01/22 04:28:19;;;;;;;8.60;1.63;;;;;;;;;;5140245;27;20122;-79
2022/01/22 04:30:46;;;;;;;12.85;1.65;;;;;;;;;;5140214;27;20039;-79
2022/01/22 04:33:12;;;;;;;10.50;1.70;;;;;;;;;;5140053;27;20135;-80
2022/01/22 04:35:38;;;;;;;9.00;1.65;;;;;;;;;;5140295;27;20043;-79
2022/01/22 04:38:04;;;;;;;10.85;2.08;;;;;;;;;;5121794;27;20062;-80
2022/01/22 04:40:31;;;;;;;12.13;2.45;;;;;;;;;;5140108;27;20464;-80
2022/01/22 04:42:59;;;;;;;11.38;2.10;;;;;;;;;;5140270;27;20148;-80
2022/01/22 04:55:32;;;;;;;8.90;1.45;;;;;;;;;;5140140;27;20035;-80
2022/01/22 04:57:58;;;;;;;8.25;1.88;;;;;;;;;;5121525;27;20043;-79
2022/01/22 05:00:25;;;;;;;9.82;1.90;;;;;;;;;;5139862;27;20054;-79
2022/01/22 05:02:51;;;;;;;13.10;1.77;;;;;;;;;;5121718;27;20046;-79
2022/01/22 05:05:17;;;;;;;12.07;1.80;;;;;;;;;;5139914;27;20503;-80
2022/01/22 05:07:43;;;;;;;10.38;1.83;;;;;;;;;;5139928;27;20093;-80
2022/01/22 05:10:10;;;;;;;8.65;1.58;;;;;;;;;;5139710;27;20134;-79
2022/01/22 05:12:36;;;;;;;5.63;1.38;;;;;;;;;;5121441;27;20098;-80
2022/01/22 05:15:02;;;;;;;6.90;1.60;;;;;;;;;;5121500;27;20035;-80
2022/01/22 05:17:31;;;;;;;8.75;1.65;;;;;;;;;;5139737;27;20479;-80
2022/01/22 05:20:09;;;;;;;7.50;1.80;;;;;;;;;;5139806;27;20051;-80
2022/01/22 05:23:23;;;;;;;8.00;1.30;;;;;;;;;;5139656;27;20082;-80
2022/01/22 05:25:37;;;;;;;7.53;1.40;;;;;;;;;;5128174;27;20074;-79
2022/01/22 05:38:22;;;;;;;8.23;1.58;;;;;;;;;;5136527;27;20054;-80
2022/01/22 05:40:48;;;;;;;10.70;1.88;;;;;;;;;;5136296;27;20164;-80
2022/01/22 05:43:14;;;;;;;5.95;1.48;;;;;;;;;;5118000;27;20043;-80
2022/01/22 05:45:41;;;;;;;7.65;1.15;;;;;;;;;;5100824;27;20043;-79
2022/01/22 05:48:08;;;;;;;6.60;1.50;;;;;;;;;;5118036;27;20047;-80
2022/01/22 05:50:46;;;;;;;9.50;1.60;;;;;;;;;;5118048;27;20092;-80
2022/01/22 05:53:26;;;;;;;12.07;1.45;;;;;;;;;;5136252;27;20041;-80
2022/01/22 06:01:17;;;;;;;10.60;1.60;;;;;;;;;;5136114;27;20047;-80
2022/01/22 06:03:43;;;;;;;8.68;1.50;;;;;;;;;;5135998;27;20043;-80
2022/01/22 06:06:09;;;;;;;9.02;1.73;;;;;;;;;;5135991;27;20171;-80
2022/01/22 06:08:44;;;;;;;10.00;1.42;;;;;;;;;;5117482;27;20043;-80
2022/01/22 06:11:11;;;;;;;8.75;1.50;;;;;;;;;;5135566;27;20476;-79
2022/01/22 06:13:44;;;;;;;7.85;1.38;;;;;;;;;;5117416;27;20089;-80
2022/01/22 06:16:11;;;;;;;9.95;1.50;;;;;;;;;;5135736;27;20042;-80
2022/01/22 06:18:38;;;;;;;8.60;1.58;;;;;;;;;;5135692;27;20051;-80
2022/01/22 06:21:05;;;;;;;7.07;1.30;;;;;;;;;;5135413;27;20498;-80
2022/01/22 06:23:31;;;;;;;7.47;1.48;;;;;;;;;;5135528;27;20043;-80
2022/01/22 06:26:00;;;;;;;7.88;1.65;;;;;;;;;;5135381;27;20039;-80
2022/01/22 06:28:26;;;;;;;8.65;1.48;;;;;;;;;;5135766;27;20372;-80
2022/01/22 06:30:52;;;;;;;9.88;1.52;;;;;;;;;;5117001;27;20116;-80
2022/01/22 06:33:18;;;;;;;13.02;1.50;;;;;;;;;;5117205;27;20043;-80
2022/01/22 06:35:45;;;;;;;8.55;1.30;;;;;;;;;;5135324;27;20122;-80
2022/01/22 06:38:11;;;;;;;10.55;1.60;;;;;;;;;;5135078;27;20097;-80
2022/01/22 06:43:04;;;;;;;16.33;1.90;;;;;;;;;;5135178;27;20039;-80
2022/01/22 06:45:30;;;;;;;11.20;1.85;;;;;;;;;;5116635;28;20168;-80
2022/01/22 06:47:57;;;;;;;13.98;1.90;;;;;;;;;;5135005;27;20121;-80
2022/01/22 06:50:23;;;;;;;9.55;1.75;;;;;;;;;;5135072;27;20043;-80
2022/01/22 06:52:56;;;;;;;14.43;2.22;;;;;;;;;;5134620;27;20042;-80
2022/01/22 06:55:32;;;;;;;14.63;2.20;;;;;;;;;;5135140;27;20042;-80
2022/01/22 06:57:58;;;;;;;14.13;2.78;;;;;;;;;;5134757;27;20480;-80
2022/01/22 07:00:24;;;;;;;14.75;2.60;;;;;;;;;;5116812;27;20112;-80
2022/01/22 07:02:50;;;;;;;15.75;2.90;;;;;;;;;;5134726;27;20050;-80
2022/01/22 07:05:16;;;;;;;19.33;3.00;;;;;;;;;;5134603;27;20598;-80
2022/01/22 07:07:42;;;;;;;14.18;2.38;;;;;;;;;;5116817;27;20089;-80
2022/01/22 07:10:09;;;;;;;17.25;2.58;;;;;;;;;;5115966;27;20122;-80
2022/01/22 07:12:35;;;;;;;15.30;2.60;;;;;;;;;;5134632;27;20043;-80
2022/01/22 07:15:02;;;;;;;14.55;2.30;;;;;;;;;;5134619;27;20046;-80
2022/01/22 07:17:34;;;;;;;10.70;2.30;;;;;;;;;;5116027;27;20047;-78
2022/01/22 07:20:00;;;;;;;15.63;2.50;;;;;;;;;;5134261;27;20054;-79
2022/01/22 07:24:58;;;;;;;14.57;2.40;;;;;;;;;;5134132;27;20054;-79
2022/01/22 07:27:25;;;;;;;13.07;2.20;;;;;;;;;;5134350;27;20122;-79
2022/01/22 07:29:51;;;;;;;10.82;2.67;;;;;;;;;;5134196;27;20046;-79
2022/01/22 07:32:27;;;;;;;11.27;2.67;;;;;;;;;;5134040;27;20039;-79
2022/01/22 07:34:53;;;;;;;17.17;3.35;;;;;;;;;;5115989;27;20035;-79
2022/01/22 07:37:20;;;;;;;16.80;3.28;;;;;;;;;;5133272;27;20035;-79
2022/01/22 07:39:46;;;;;;;13.18;2.95;;;;;;;;;;5133319;27;20091;-79
2022/01/22 07:42:12;;;;;;;10.68;2.65;;;;;;;;;;5132695;27;20472;-79
2022/01/22 07:44:38;;;;;;;11.38;2.58;;;;;;;;;;5133621;27;20043;-79
2022/01/22 07:47:04;;;;;;;10.90;2.40;;;;;;;;;;5133383;27;20043;-80
2022/01/22 07:49:30;;;;;;;10.77;2.20;;;;;;;;;;5133992;27;20404;-79
2022/01/22 07:51:56;;;;;;;12.27;1.95;;;;;;;;;;5115685;27;20039;-79
2022/01/22 07:54:24;;;;;;;7.65;1.92;;;;;;;;;;5115517;27;20070;-79
2022/01/22 07:56:50;;;;;;;11.23;2.45;;;;;;;;;;5133465;27;20046;-79
2022/01/22 07:59:16;;;;;;;8.32;2.25;;;;;;;;;;5132779;27;20046;-79
2022/01/22 08:01:42;;;;;;;8.68;2.20;;;;;;;;;;5133460;27;20054;-79
2022/01/22 08:04:08;;;;;;;8.63;2.08;;;;;;;;;;5115476;27;20035;-80
2022/01/22 08:06:34;;;;;;;7.65;1.77;;;;;;;;;;5133687;27;20038;-79
2022/01/22 08:09:01;;;;;;;6.80;1.67;;;;;;;;;;5133125;27;20051;-79
2022/01/22 08:11:27;;;;;;;9.80;1.63;;;;;;;;;;5112337;27;20079;-79
2022/01/22 08:13:53;;;;;;;10.25;1.92;;;;;;;;;;5122691;27;20035;-80
2022/01/22 08:16:19;;;;;;;10.15;2.00;;;;;;;;;;5130172;27;20475;-80
2022/01/22 08:18:45;;;;;;;9.77;2.03;;;;;;;;;;5121006;27;20035;-80
2022/01/22 08:21:11;;;;;;;10.43;1.80;;;;;;;;;;5133587;28;20077;-79
2022/01/22 08:23:37;;;;;;;12.02;2.00;;;;;;;;;;5133441;28;20088;-81
2022/01/22 08:26:08;;;;;;;9.60;1.65;;;;;;;;;;5106345;28;20130;-81
2022/01/22 08:32:09;;;;;;;10.25;2.05;;;;;;;;;;5133565;27;20040;-79
2022/01/22 08:36:54;;;;;;;8.68;2.00;;;;;;;;;;5094230;28;20124;-81
2022/01/22 08:39:20;;;;;;;5.75;1.50;;;;;;;;;;5112497;28;20048;-80
2022/01/22 08:41:47;;;;;;;7.20;1.73;;;;;;;;;;5094827;28;20196;-80
2022/01/22 08:44:13;;;;;;;7.72;1.83;;;;;;;;;;5094485;28;20048;-80
2022/01/22 08:46:40;;;;;;;8.95;1.70;;;;;;;;;;5112508;28;20058;-81
2022/01/22 08:49:07;;;;;;;7.25;1.52;;;;;;;;;;5112730;28;20123;-81
2022/01/22 08:51:33;;;;;;;9.32;1.70;;;;;;;;;;5112353;28;20104;-81
2022/01/22 08:54:01;;;;;;;5.03;1.58;;;;;;;;;;5112853;28;20122;-79
2022/01/22 08:56:27;;;;;;;6.53;1.67;;;;;;;;;;5112644;28;20047;-80
2022/01/22 08:58:54;;;;;;;8.13;1.80;;;;;;;;;;5094464;28;20540;-79
2022/01/22 09:01:20;;;;;;;8.48;1.77;;;;;;;;;;5112556;28;20040;-81
2022/01/22 09:03:48;;;;;;;4.50;1.27;;;;;;;;;;5094720;28;20195;-80
2022/01/22 09:06:14;;;;;;;6.15;1.27;;;;;;;;;;5112399;28;20051;-81
2022/01/22 09:08:41;;;;;;;4.22;1.20;;;;;;;;;;5112682;28;20092;-81
2022/01/22 09:11:07;;;;;;;8.57;1.60;;;;;;;;;;5116485;28;20055;-81
2022/01/22 09:13:34;;;;;;;7.35;1.88;;;;;;;;;;5116315;28;20043;-81
2022/01/22 09:16:00;;;;;;;7.38;1.83;;;;;;;;;;5116323;28;20044;-80
2022/01/22 09:18:27;;;;;;;6.63;1.95;;;;;;;;;;5115882;28;20044;-81
2022/01/22 09:21:04;;;;;;;6.82;1.85;;;;;;;;;;5116200;28;20357;-81
2022/01/22 09:23:31;;;;;;;6.75;1.50;;;;;;;;;;5116248;28;20151;-81
2022/01/22 09:25:57;;;;;;;4.55;1.33;;;;;;;;;;5098363;28;20040;-80
2022/01/22 09:28:24;;;;;;;7.35;1.33;;;;;;;;;;5097772;28;20075;-81
2022/01/22 09:30:50;;;;;;;5.75;1.13;;;;;;;;;;5115996;28;20497;-79
2022/01/22 09:33:16;;;;;;;5.13;1.30;;;;;;;;;;5115925;28;20445;-80
2022/01/22 09:35:42;;;;;;;7.97;1.42;;;;;;;;;;5115971;28;20119;-80
2022/01/22 09:38:08;;;;;;;7.30;1.50;;;;;;;;;;5115948;28;20042;-80
2022/01/22 09:40:35;;;;;;;8.02;1.73;;;;;;;;;;5115796;28;20082;-79
2022/01/22 09:43:01;;;;;;;7.72;1.40;;;;;;;;;;5115799;28;20039;-80
2022/01/22 09:45:28;;;;;;;8.98;1.25;;;;;;;;;;5115779;28;20039;-81
2022/01/22 09:47:55;;;;;;;7.53;1.13;;;;;;;;;;5115587;28;20039;-81
2022/01/22 09:50:23;;;;;;;6.47;1.20;;;;;;;;;;5115481;28;20035;-80
2022/01/22 09:52:50;;;;;;;12.30;1.40;;;;;;;;;;5097344;28;20131;-80
2022/01/22 09:55:17;;;;;;;10.93;1.52;;;;;;;;;;5115755;28;20366;-80
2022/01/22 10:00:28;;;;;;;6.20;1.60;;;;;;;;;;5115366;28;20107;-80
2022/01/22 10:02:55;;;;;;;8.75;1.48;;;;;;;;;;5115483;28;20098;-80
2022/01/22 10:05:38;;;;;;;10.60;1.40;;;;;;;;;;5115625;28;20093;-79
2022/01/22 10:08:24;;;;;;;11.80;1.70;;;;;;;;;;5115294;28;20438;-80
2022/01/22 10:10:51;;;;;;;14.48;2.00;;;;;;;;;;5115033;28;20051;-80
2022/01/22 10:13:36;;;;;;;10.70;1.55;;;;;;;;;;5115263;28;20043;-80
2022/01/22 10:16:11;;;;;;;11.30;1.70;;;;;;;;;;5115102;28;20079;-74
2022/01/22 10:18:37;;;;;;;8.27;1.45;;;;;;;;;;5096668;28;20440;-81
2022/01/22 10:21:07;;;;;;;8.55;1.42;;;;;;;;;;5113726;28;20043;-80
2022/01/22 10:23:39;;;;;;;9.18;1.50;;;;;;;;;;5115071;28;20391;-80
2022/01/22 10:26:08;;;;;;;7.30;1.58;;;;;;;;;;5114963;28;20039;-80
2022/01/22 10:29:00;;;;;;;10.40;2.03;;;;;;;;;;5114976;28;20127;-81
2022/01/22 10:31:41;;;;;;;13.80;2.00;;;;;;;;;;5096526;28;20380;-81
2022/01/22 10:34:07;;;;;;;15.27;2.08;;;;;;;;;;5114798;28;20043;-80
2022/01/22 10:36:33;;;;;;;9.55;1.80;;;;;;;;;;5096647;28;20047;-80
2022/01/22 10:38:59;;;;;;;8.25;1.70;;;;;;;;;;5114592;28;20110;-81
2022/01/22 10:41:36;;;;;;;7.55;1.65;;;;;;;;;;5114540;28;20438;-81
2022/01/22 10:44:03;;;;;;;11.57;1.70;;;;;;;;;;5114460;28;20362;-80
2022/01/22 10:46:46;;;;;;;8.60;1.90;;;;;;;;;;5114368;28;20440;-80
2022/01/22 10:49:13;;;;;;;11.50;2.65;;;;;;;;;;5096224;28;20477;-81
2022/01/22 10:51:45;;;;;;;11.68;2.08;;;;;;;;;;5114644;28;20067;-80
2022/01/22 10:54:12;;;;;;;10.50;1.70;;;;;;;;;;5114403;28;20048;-80
2022/01/22 10:56:40;;;;;;;8.77;1.50;;;;;;;;;;5114172;28;20083;-80
2022/01/22 10:59:06;;;;;;;9.20;1.98;;;;;;;;;;5114348;28;20052;-80
2022/01/22 11:01:54;;;;;;;12.25;2.10;;;;;;;;;;5114453;28;20043;-80
2022/01/22 11:04:26;;;;;;;9.18;1.90;;;;;;;;;;5114034;28;20043;-80
2022/01/22 11:06:53;;;;;;;10.52;1.65;;;;;;;;;;5113976;28;20090;-80
2022/01/22 11:09:20;;;;;;;7.47;1.55;;;;;;;;;;5113613;28;20105;-80
2022/01/22 11:11:47;;;;;;;7.50;1.48;;;;;;;;;;5114122;28;20052;-80
2022/01/22 11:14:13;;;;;;;5.25;1.30;;;;;;;;;;5095887;28;20384;-81
2022/01/22 11:16:41;;;;;;;7.90;1.70;;;;;;;;;;5113862;28;20385;-81
2022/01/22 11:19:10;;;;;;;5.63;1.52;;;;;;;;;;5113926;28;20043;-80
2022/01/22 11:21:40;;;;;;;8.35;1.50;;;;;;;;;;5113574;28;20046;-81
2022/01/22 11:24:08;;;;;;;11.80;1.85;;;;;;;;;;5095807;28;20083;-79
2022/01/22 11:26:35;;;;;;;7.70;1.40;;;;;;;;;;5095373;28;20066;-79
2022/01/22 11:29:02;;;;;;;7.15;1.55;;;;;;;;;;5113741;28;20251;-80
2022/01/22 11:31:28;;;;;;;6.43;1.50;;;;;;;;;;5113216;28;20663;-81
2022/01/22 11:33:55;;;;;;;7.93;1.70;;;;;;;;;;5113529;28;20047;-81
2022/01/22 11:36:25;;;;;;;5.85;1.40;;;;;;;;;;5095462;28;20064;-80
2022/01/22 11:39:01;;;;;;;5.85;1.35;;;;;;;;;;5113383;28;20431;-80
2022/01/22 11:41:27;;;;;;;6.22;1.30;;;;;;;;;;5095633;28;20054;-80
2022/01/22 11:44:06;;;;;;;8.30;1.38;;;;;;;;;;5113490;28;20362;-81
2022/01/22 11:46:35;;;;;;;9.95;1.25;;;;;;;;;;5095194;28;20043;-82
2022/01/22 11:49:11;;;;;;;9.00;1.63;;;;;;;;;;5113244;28;20118;-81
2022/01/22 11:51:37;;;;;;;9.38;1.60;;;;;;;;;;5113488;28;20122;-80
2022/01/22 11:54:04;;;;;;;8.73;1.33;;;;;;;;;;5113319;28;20122;-80
2022/01/22 11:56:31;;;;;;;8.93;1.60;;;;;;;;;;5095262;28;20051;-80
2022/01/22 11:59:15;;;;;;;12.38;1.60;;;;;;;;;;5113079;28;20043;-81
2022/01/22 12:01:53;;;;;;;10.93;1.80;;;;;;;;;;5094897;28;20046;-80
2022/01/22 12:04:27;;;;;;;14.95;2.17;;;;;;;;;;5113170;28;20488;-81
2022/01/22 12:07:02;;;;;;;8.00;1.90;;;;;;;;;;5112964;28;20127;-80
2022/01/22 12:09:31;;;;;;;43.42;3.83;;;;;;;;;;5112602;28;20047;-80
2022/01/22 12:14:49;;;;;;;19.23;2.67;;;;;;;;;;5112906;28;20044;-81
2022/01/22 12:17:28;;;;;;;11.57;2.30;;;;;;;;;;5112964;28;20044;-80
2022/01/22 12:22:30;;;;;;;10.85;2.20;;;;;;;;;;5112998;28;20051;-80
2022/01/22 12:24:56;;;;;;;10.80;2.28;;;;;;;;;;5113025;28;20052;-80
2022/01/22 12:27:40;;;;;;;13.80;3.08;;;;;;;;;;5112840;28;20491;-80
2022/01/22 12:30:07;;;;;;;9.38;2.88;;;;;;;;;;5112886;28;20043;-80
2022/01/22 12:32:43;;;;;;;14.48;3.15;;;;;;;;;;5077987;28;20061;-80
2022/01/22 12:35:12;;;;;;;13.77;3.10;;;;;;;;;;5112781;28;20039;-80
2022/01/22 12:37:41;;;;;;;13.25;3.55;;;;;;;;;;5094438;28;20047;-80
2022/01/22 12:40:07;;;;;;;10.40;3.40;;;;;;;;;;5112636;28;20043;-81
2022/01/22 12:42:57;;;;;;;15.50;3.78;;;;;;;;;;5112809;28;20138;-81
2022/01/22 12:45:25;;;;;;;12.90;3.67;;;;;;;;;;5116192;28;20130;-81
2022/01/22 12:47:52;;;;;;;13.60;3.50;;;;;;;;;;5116851;28;20043;-80
2022/01/22 12:50:24;;;;;;;15.63;3.80;;;;;;;;;;5116630;28;20044;-81
2022/01/22 12:52:51;;;;;;;15.68;3.85;;;;;;;;;;5116867;28;20122;-81
2022/01/22 12:55:24;;;;;;;12.10;3.90;;;;;;;;;;5116321;28;20575;-81
2022/01/22 12:57:51;;;;;;;17.73;4.28;;;;;;;;;;5116594;28;20380;-81
2022/01/22 13:00:19;;;;;;;14.13;4.20;;;;;;;;;;5116688;28;20035;-81
2022/01/22 13:02:47;;;;;;;15.40;4.15;;;;;;;;;;5116669;28;20086;-81
2022/01/22 13:05:15;;;;;;;19.55;4.47;;;;;;;;;;5116618;28;20039;-81
2022/01/22 13:07:47;;;;;;;16.02;4.25;;;;;;;;;;5098326;28;20094;-79
2022/01/22 13:10:13;;;;;;;15.15;4.20;;;;;;;;;;5116404;28;20108;-80
2022/01/22 13:12:44;;;;;;;16.75;4.97;;;;;;;;;;5116388;28;20126;-80
2022/01/22 13:15:11;;;;;;;18.20;4.55;;;;;;;;;;5116514;28;20044;-80
2022/01/22 13:17:37;;;;;;;15.02;4.45;;;;;;;;;;5116160;28;20048;-80
2022/01/22 13:20:05;;;;;;;19.15;5.22;;;;;;;;;;5116026;28;20046;-81
2022/01/22 13:22:32;;;;;;;13.38;4.22;;;;;;;;;;5116143;28;20040;-81
2022/01/22 13:25:12;;;;;;;16.00;4.68;;;;;;;;;;5097990;28;20039;-81
2022/01/22 13:27:39;;;;;;;15.88;4.30;;;;;;;;;;5115884;28;20085;-81
2022/01/22 13:30:07;;;;;;;16.65;3.97;;;;;;;;;;5115786;28;20044;-81
2022/01/22 13:48:56;;;;;;;12.30;3.95;;;;;;;;;;5097737;28;20286;-81
2022/01/22 13:51:22;;;;;;;14.35;3.75;;;;;;;;;;5115567;28;20118;-81
2022/01/22 13:53:48;;;;;;;14.88;4.25;;;;;;;;;;5097306;28;20131;-81
2022/01/22 13:56:16;;;;;;;14.23;4.07;;;;;;;;;;5096074;28;20499;-81
2022/01/22 13:58:42;;;;;;;18.33;3.80;;;;;;;;;;5115554;28;20047;-81
2022/01/22 14:01:42;;;;;;;16.70;4.95;;;;;;;;;;5115275;28;20507;-81
2022/01/22 14:04:09;;;;;;;14.43;4.03;;;;;;;;;;5115229;28;20088;-81
2022/01/22 14:06:36;;;;;;;15.38;4.35;;;;;;;;;;5097144;28;20067;-81
2022/01/22 14:09:15;;;;;;;17.52;5.35;;;;;;;;;;5115444;28;20039;-81
2022/01/22 14:12:01;;;;;;;20.33;5.20;;;;;;;;;;5074511;28;20075;-81
2022/01/22 14:14:31;;;;;;;18.38;5.00;;;;;;;;;;5074298;28;20041;-81
2022/01/22 14:17:11;;;;;;;17.75;5.18;;;;;;;;;;5074753;28;20497;-81
2022/01/22 14:19:37;;;;;;;18.52;4.95;;;;;;;;;;5073529;28;20051;-80
2022/01/22 14:22:04;;;;;;;14.05;4.70;;;;;;;;;;5074352;28;20442;-79
2022/01/22 14:24:31;;;;;;;20.48;6.07;;;;;;;;;;5074301;28;20386;-79
2022/01/22 14:26:57;;;;;;;23.30;5.70;;;;;;;;;;5074254;28;20494;-80
2022/01/22 14:29:23;;;;;;;17.20;4.60;;;;;;;;;;5074392;28;20503;-79
2022/01/22 14:31:50;;;;;;;14.88;4.60;;;;;;;;;;5074367;28;20098;-80
2022/01/22 14:34:38;;;;;;;15.45;4.88;;;;;;;;;;5074363;28;20051;-79
2022/01/22 14:37:06;;;;;;;15.85;3.83;;;;;;;;;;5073186;28;20044;-80
2022/01/22 14:45:20;;;;;;;17.13;2.25;;;;;;;;;;5073845;28;20474;-80
2022/01/22 14:47:52;;;;;;;9.98;2.10;;;;;;;;;;5073869;28;20095;-79
2022/01/22 14:50:18;;;;;;;9.38;1.80;;;;;;;;;;5073905;28;20048;-79
2022/01/22 14:52:47;;;;;;;13.45;2.05;;;;;;;;;;5073905;28;20095;-79
2022/01/22 14:55:13;;;;;;;11.60;2.80;;;;;;;;;;5072890;28;20129;-80
2022/01/22 14:57:41;;;;;;;12.38;2.80;;;;;;;;;;5055707;28;20546;-80
2022/01/22 15:00:12;;;;;;;14.63;3.60;;;;;;;;;;5073476;28;20040;-80
2022/01/22 15:02:39;;;;;;;13.45;4.70;;;;;;;;;;5073721;28;20044;-81
2022/01/22 15:05:07;;;;;;;17.45;4.45;;;;;;;;;;5073775;28;20048;-79
2022/01/22 15:07:34;;;;;;;13.95;3.60;;;;;;;;;;5072064;28;20366;-79
2022/01/22 15:10:00;;;;;;;16.92;3.33;;;;;;;;;;5061882;28;20047;-80
2022/01/22 15:12:27;;;;;;;11.55;3.10;;;;;;;;;;5093476;28;20056;-80
2022/01/22 15:14:53;;;;;;;12.63;2.67;;;;;;;;;;5093321;28;20039;-80
2022/01/22 15:19:47;;;;;;;13.18;2.60;;;;;;;;;;5093473;28;20054;-80
2022/01/22 15:22:16;;;;;;;13.30;2.63;;;;;;;;;;5093415;28;20095;-80
2022/01/22 15:24:44;;;;;;;14.00;2.97;;;;;;;;;;5093314;28;20036;-79
2022/01/22 15:27:12;;;;;;;14.60;2.97;;;;;;;;;;5093252;28;20439;-79
2022/01/22 15:29:53;;;;;;;13.45;1.92;;;;;;;;;;5093064;28;20040;-79
2022/01/22 15:32:38;;;;;;;12.90;2.20;;;;;;;;;;5093356;28;20040;-79
2022/01/22 15:35:06;;;;;;;13.80;2.38;;;;;;;;;;5093109;28;20097;-80
2022/01/22 15:37:33;;;;;;;15.88;2.60;;;;;;;;;;5092766;28;20048;-80
2022/01/22 15:39:59;;;;;;;12.88;2.65;;;;;;;;;;5091902;28;20092;-79
2022/01/22 15:42:25;;;;;;;9.82;2.20;;;;;;;;;;5093046;28;20123;-80
2022/01/22 15:44:51;;;;;;;8.98;2.30;;;;;;;;;;5093217;28;20071;-80
2022/01/22 15:47:18;;;;;;;12.95;2.22;;;;;;;;;;5093045;28;20472;-80
2022/01/22 15:49:46;;;;;;;13.63;2.42;;;;;;;;;;5092145;28;20070;-78
2022/01/22 15:52:12;;;;;;;16.33;2.63;;;;;;;;;;5093299;28;20051;-79
2022/01/22 15:54:41;;;;;;;13.00;2.13;;;;;;;;;;5092920;28;20181;-80
2022/01/22 15:57:08;;;;;;;10.10;1.83;;;;;;;;;;5093112;28;20047;-79
2022/01/22 15:59:34;;;;;;;13.75;2.25;;;;;;;;;;5092801;28;20544;-80
2022/01/22 16:02:00;;;;;;;9.02;1.95;;;;;;;;;;5092793;28;20485;-79
2022/01/22 16:04:26;;;;;;;8.88;1.70;;;;;;;;;;5092777;28;20040;-79
2022/01/22 16:09:19;;;;;;;12.55;1.52;;;;;;;;;;5092545;28;20055;-78
2022/01/22 16:11:46;;;;;;;9.82;1.65;;;;;;;;;;5092700;28;20087;-80
2022/01/22 16:14:13;;;;;;;8.88;1.70;;;;;;;;;;5092573;28;20459;-80
2022/01/22 16:16:39;;;;;;;11.55;1.80;;;;;;;;;;5091648;28;20079;-80
2022/01/22 16:19:07;;;;;;;9.50;1.70;;;;;;;;;;5091862;28;20044;-80
2022/01/22 16:21:33;;;;;;;7.72;1.73;;;;;;;;;;5092436;28;20043;-80
2022/01/22 16:23:59;;;;;;;10.15;2.03;;;;;;;;;;5092927;28;20452;-79
2022/01/22 16:26:26;;;;;;;7.90;1.77;;;;;;;;;;5092607;28;20044;-80
2022/01/22 16:28:52;;;;;;;8.68;1.60;;;;;;;;;;5092724;28;20123;-79
2022/01/22 16:31:18;;;;;;;10.68;1.90;;;;;;;;;;5092433;28;20488;-81
2022/01/22 16:33:45;;;;;;;6.95;1.83;;;;;;;;;;5092593;28;20055;-80
2022/01/22 16:36:12;;;;;;;9.68;3.10;;;;;;;;;;5092059;28;20485;-80
2022/01/22 16:38:42;;;;;;;15.00;5.10;;;;;;;;;;5092470;28;20044;-80
2022/01/22 16:41:09;;;;;;;14.85;4.78;;;;;;;;;;5091362;28;20058;-80
2022/01/22 16:43:36;;;;;;;10.40;3.63;;;;;;;;;;5092492;28;20497;-80
2022/01/22 16:51:29;;;;;;;16.10;2.90;;;;;;;;;;5092347;28;20040;-80
2022/01/22 16:59:24;;;;;;;16.38;2.70;;;;;;;;;;5086239;28;20040;-80